Time;durP1;ratioP1;P1;durP2;ratioP2;P2;SDS_P1;SDS_P2;PMS_P1;PMS_P2;Temp;Humidity;BMP_temperature;BMP_pressure;BME280_temperature;BME280_humidity;BME280_pressure;Samples;Min_cycle;Max_cycle;Signal;HPM_P1;HPM_P2
2023/08/28 00:01:53;;;;;;;3.17;2.30;;;12.70;99.90;;;;;;5008727;28;20226;-47
2023/08/28 00:04:22;;;;;;;4.23;2.60;;;12.70;99.90;;;;;;5031251;28;20281;-53
2023/08/28 00:06:49;;;;;;;2.97;2.40;;;12.70;99.90;;;;;;5029972;28;20195;-44
2023/08/28 00:09:15;;;;;;;4.23;3.20;;;12.70;99.90;;;;;;5023257;28;20196;-51
2023/08/28 00:11:42;;;;;;;7.43;3.33;;;12.60;99.90;;;;;;5018375;28;20974;-50
2023/08/28 00:14:09;;;;;;;3.40;2.80;;;12.60;99.90;;;;;;5023262;28;20593;-49
2023/08/28 00:16:36;;;;;;;3.90;2.90;;;12.60;99.90;;;;;;5001642;28;20461;-49
2023/08/28 00:19:03;;;;;;;3.10;2.90;;;12.60;99.90;;;;;;5028094;28;20265;-46
2023/08/28 00:21:32;;;;;;;4.07;3.20;;;12.60;99.90;;;;;;5027045;28;20200;-50
2023/08/28 00:23:59;;;;;;;3.50;3.20;;;12.60;99.90;;;;;;5028844;28;20642;-49
2023/08/28 00:26:26;;;;;;;5.33;3.70;;;12.60;99.90;;;;;;5025901;28;20204;-51
2023/08/28 00:28:52;;;;;;;3.13;2.87;;;12.60;99.90;;;;;;5029188;28;20180;-47
2023/08/28 00:31:19;;;;;;;5.17;3.87;;;12.60;99.90;;;;;;5028372;28;20286;-52
2023/08/28 00:33:46;;;;;;;4.80;3.40;;;12.60;99.90;;;;;;5011883;28;20945;-47
2023/08/28 00:36:13;;;;;;;3.87;3.57;;;12.60;99.90;;;;;;5035118;28;20202;-46
2023/08/28 00:38:41;;;;;;;4.53;3.50;;;12.50;99.90;;;;;;5038510;28;20342;-43
2023/08/28 00:41:08;;;;;;;4.00;3.70;;;12.60;99.90;;;;;;5035085;28;20614;-47
2023/08/28 00:43:35;;;;;;;7.30;3.53;;;12.60;99.90;;;;;;5020418;28;20887;-45
2023/08/28 00:46:04;;;;;;;5.87;4.00;;;12.50;99.90;;;;;;5040097;28;20215;-49
2023/08/28 00:48:31;;;;;;;4.13;3.67;;;12.50;99.90;;;;;;5022494;28;20196;-54
2023/08/28 00:50:59;;;;;;;4.60;3.60;;;12.50;99.90;;;;;;5030505;28;20197;-48
2023/08/28 00:53:25;;;;;;;3.57;3.33;;;12.60;99.90;;;;;;5023313;28;20655;-48
2023/08/28 00:55:54;;;;;;;7.83;4.27;;;12.60;99.90;;;;;;5040237;28;20187;-45
2023/08/28 00:58:22;;;;;;;4.63;4.00;;;12.60;99.90;;;;;;5038585;28;20227;-47
2023/08/28 01:00:49;;;;;;;4.30;3.57;;;12.60;99.90;;;;;;5026746;28;20978;-47
2023/08/28 01:03:15;;;;;;;5.73;4.37;;;12.60;99.90;;;;;;5030560;28;20200;-50
2023/08/28 01:05:51;;;;;;;4.30;3.67;;;12.60;99.90;;;;;;5012007;28;20195;-46
2023/08/28 01:08:28;;;;;;;5.30;3.97;;;12.60;99.90;;;;;;5030052;28;20191;-52
2023/08/28 01:11:02;;;;;;;4.23;3.57;;;12.60;99.90;;;;;;5029711;28;20658;-45
2023/08/28 01:13:36;;;;;;;4.33;3.93;;;12.60;99.90;;;;;;5032140;28;20190;-48
2023/08/28 01:16:05;;;;;;;3.70;3.50;;;12.60;99.90;;;;;;5037079;28;20219;-49
2023/08/28 01:18:32;;;;;;;5.07;3.67;;;12.60;99.90;;;;;;5028388;28;20219;-51
2023/08/28 01:21:00;;;;;;;6.73;4.10;;;12.50;99.90;;;;;;5013671;28;20211;-46
2023/08/28 01:23:40;;;;;;;4.10;3.70;;;12.60;99.90;;;;;;5027749;28;20256;-53
2023/08/28 01:26:08;;;;;;;4.30;3.67;;;12.50;99.90;;;;;;5032164;28;20196;-47
2023/08/28 01:28:35;;;;;;;4.10;3.63;;;12.50;99.90;;;;;;5025212;28;20180;-47
2023/08/28 01:31:05;;;;;;;7.07;3.73;;;12.60;99.90;;;;;;5030262;28;20555;-44
2023/08/28 01:33:35;;;;;;;4.30;3.50;;;12.60;99.90;;;;;;5025008;28;20283;-46
2023/08/28 01:36:13;;;;;;;4.27;3.90;;;12.50;99.90;;;;;;5019777;28;20199;-46
2023/08/28 01:38:46;;;;;;;4.20;3.90;;;12.60;99.90;;;;;;5023790;28;20196;-45
2023/08/28 01:41:18;;;;;;;3.97;3.67;;;12.50;99.90;;;;;;5029802;28;20192;-50
2023/08/28 01:43:49;;;;;;;7.10;3.87;;;12.50;99.90;;;;;;5021619;28;20206;-49
2023/08/28 01:46:16;;;;;;;4.37;4.07;;;12.60;99.90;;;;;;5025040;28;20191;-52
2023/08/28 01:48:45;;;;;;;4.70;4.10;;;12.60;99.90;;;;;;5022721;28;20226;-46
2023/08/28 01:51:12;;;;;;;6.83;4.37;;;12.60;99.90;;;;;;5016339;28;20200;-46
2023/08/28 01:53:39;;;;;;;5.80;4.03;;;12.60;99.90;;;;;;5027439;28;20878;-46
2023/08/28 01:56:26;;;;;;;4.97;4.33;;;12.60;99.90;;;;;;5031023;28;20196;-47
2023/08/28 01:58:55;;;;;;;7.67;3.80;;;12.70;99.90;;;;;;5025870;28;20677;-48
2023/08/28 02:01:23;;;;;;;4.60;3.77;;;12.70;99.90;;;;;;5035536;28;20204;-51
2023/08/28 02:03:50;;;;;;;5.00;4.03;;;12.80;99.90;;;;;;5027374;28;20204;-48
2023/08/28 02:06:17;;;;;;;4.83;4.17;;;12.80;99.90;;;;;;5027603;28;20207;-53
2023/08/28 02:08:45;;;;;;;6.00;4.07;;;12.80;99.90;;;;;;5010779;28;20200;-47
2023/08/28 02:11:12;;;;;;;4.70;4.20;;;12.80;99.90;;;;;;5023908;28;20200;-48
2023/08/28 02:13:40;;;;;;;4.93;4.33;;;12.90;99.90;;;;;;5030671;28;20293;-44
2023/08/28 02:16:07;;;;;;;4.63;4.23;;;12.90;99.90;;;;;;5035885;28;20690;-46
2023/08/28 02:18:34;;;;;;;3.77;3.47;;;12.90;99.90;;;;;;5027832;28;20208;-47
2023/08/28 02:21:01;;;;;;;5.27;4.23;;;12.90;99.90;;;;;;5032914;28;20282;-50
2023/08/28 02:23:29;;;;;;;4.70;4.30;;;12.90;99.90;;;;;;5014270;28;20211;-52
2023/08/28 02:25:56;;;;;;;4.37;3.97;;;13.00;99.90;;;;;;5028610;28;20240;-44
2023/08/28 02:28:23;;;;;;;4.53;4.13;;;13.00;99.90;;;;;;5027251;28;20708;-53
2023/08/28 02:30:51;;;;;;;4.23;3.70;;;13.00;99.90;;;;;;5026119;28;20184;-46
2023/08/28 02:33:18;;;;;;;3.90;3.60;;;13.00;99.90;;;;;;5029826;28;20246;-50
2023/08/28 02:35:45;;;;;;;4.40;4.10;;;13.10;99.90;;;;;;5028229;28;20196;-46
2023/08/28 02:38:12;;;;;;;4.27;3.90;;;13.10;99.90;;;;;;5014462;28;20200;-49
2023/08/28 02:40:40;;;;;;;5.77;3.83;;;13.10;99.90;;;;;;5024765;28;20215;-50
2023/08/28 02:43:07;;;;;;;6.80;3.67;;;13.20;99.90;;;;;;5024760;28;20196;-46
2023/08/28 02:45:35;;;;;;;4.47;3.57;;;13.20;99.90;;;;;;5025823;28;20215;-47
2023/08/28 02:48:04;;;;;;;4.33;3.90;;;13.20;99.90;;;;;;5031830;28;20198;-44
2023/08/28 02:50:31;;;;;;;5.57;3.33;;;13.20;99.90;;;;;;5021321;28;20223;-49
2023/08/28 02:52:58;;;;;;;4.17;3.87;;;13.20;99.90;;;;;;5007397;28;20250;-46
2023/08/28 02:55:25;;;;;;;4.67;3.77;;;13.20;99.90;;;;;;5022805;28;20220;-52
2023/08/28 02:57:52;;;;;;;3.90;3.23;;;13.30;99.90;;;;;;5032097;28;20196;-46
2023/08/28 03:00:19;;;;;;;4.90;3.57;;;13.30;99.90;;;;;;5034469;28;20273;-53
2023/08/28 03:02:47;;;;;;;3.80;3.30;;;13.30;99.90;;;;;;5028579;28;20251;-47
2023/08/28 03:05:15;;;;;;;3.50;3.20;;;13.30;99.90;;;;;;5034683;28;20219;-51
2023/08/28 03:07:42;;;;;;;4.30;3.27;;;13.30;99.90;;;;;;5023803;28;20947;-48
2023/08/28 03:10:10;;;;;;;4.33;2.60;;;13.30;99.90;;;;;;5018380;28;20195;-45
2023/08/28 03:12:37;;;;;;;3.20;3.00;;;13.30;99.90;;;;;;5027488;28;20200;-48
2023/08/28 03:15:05;;;;;;;5.63;3.47;;;13.40;99.90;;;;;;5033382;28;20318;-52
2023/08/28 03:17:32;;;;;;;3.37;3.17;;;13.30;99.90;;;;;;5029535;28;20705;-54
2023/08/28 03:19:59;;;;;;;3.70;3.33;;;13.40;99.90;;;;;;5033558;28;20208;-49
2023/08/28 03:22:27;;;;;;;3.60;3.13;;;13.40;99.90;;;;;;5029920;28;20731;-50
2023/08/28 03:24:54;;;;;;;5.87;3.50;;;13.40;99.90;;;;;;5009232;28;20228;-44
2023/08/28 03:27:21;;;;;;;4.07;3.03;;;13.40;99.90;;;;;;5024052;28;20568;-51
2023/08/28 03:29:48;;;;;;;3.57;3.27;;;13.40;99.90;;;;;;5027737;28;20196;-49
2023/08/28 03:32:15;;;;;;;3.63;3.00;;;13.50;99.90;;;;;;5029523;28;20230;-48
2023/08/28 03:34:41;;;;;;;3.47;3.27;;;13.50;99.90;;;;;;5015292;28;20278;-49
2023/08/28 03:37:08;;;;;;;2.90;2.60;;;13.50;99.90;;;;;;5025483;28;20258;-47
2023/08/28 03:39:37;;;;;;;4.77;3.00;;;13.50;99.90;;;;;;5002782;28;20314;-47
2023/08/28 03:42:05;;;;;;;4.13;3.20;;;13.50;99.90;;;;;;5027002;28;20569;-49
2023/08/28 03:44:31;;;;;;;6.33;3.53;;;13.50;99.90;;;;;;5019561;28;20227;-53
2023/08/28 03:46:58;;;;;;;5.67;3.00;;;13.60;99.90;;;;;;5028743;28;20196;-47
2023/08/28 03:49:26;;;;;;;4.13;3.17;;;13.60;99.90;;;;;;5023341;28;20680;-52
2023/08/28 03:51:59;;;;;;;3.83;2.87;;;13.60;99.90;;;;;;5021669;28;20725;-45
2023/08/28 03:54:27;;;;;;;4.17;3.00;;;13.60;99.90;;;;;;5008693;28;20631;-54
2023/08/28 03:56:55;;;;;;;3.40;3.10;;;13.60;99.90;;;;;;5021363;28;20297;-48
2023/08/28 03:59:23;;;;;;;3.87;3.53;;;13.60;99.90;;;;;;5033515;28;20228;-53
2023/08/28 04:01:50;;;;;;;3.80;3.60;;;13.60;99.90;;;;;;5027193;28;20191;-48
2023/08/28 04:04:17;;;;;;;3.30;3.00;;;13.60;99.90;;;;;;5031902;28;20307;-50
2023/08/28 04:06:44;;;;;;;5.67;4.03;;;13.60;99.90;;;;;;5031469;28;20877;-51
2023/08/28 04:09:11;;;;;;;4.17;3.20;;;13.60;99.90;;;;;;5034605;28;20192;-46
2023/08/28 04:11:38;;;;;;;3.30;2.80;;;13.60;99.90;;;;;;5012951;28;20896;-50
2023/08/28 04:14:06;;;;;;;6.47;3.37;;;13.50;99.90;;;;;;5033086;28;20204;-49
2023/08/28 04:16:33;;;;;;;3.30;2.97;;;13.50;99.90;;;;;;5026817;28;20203;-52
2023/08/28 04:19:00;;;;;;;3.10;2.87;;;13.50;99.90;;;;;;5032475;28;20604;-45
2023/08/28 04:21:27;;;;;;;3.00;2.80;;;13.50;99.90;;;;;;5028599;28;20214;-51
2023/08/28 04:23:54;;;;;;;3.47;3.27;;;13.50;99.90;;;;;;5029865;28;20273;-50
2023/08/28 04:26:22;;;;;;;3.50;3.30;;;13.50;99.90;;;;;;5014532;28;20203;-53
2023/08/28 04:28:49;;;;;;;4.07;3.80;;;13.50;99.90;;;;;;5025316;28;20471;-46
2023/08/28 04:31:17;;;;;;;6.00;3.97;;;13.50;99.90;;;;;;5031272;28;20180;-54
2023/08/28 04:33:45;;;;;;;4.07;3.77;;;13.50;99.90;;;;;;5023497;28;20312;-51
2023/08/28 04:36:12;;;;;;;5.37;4.90;;;13.50;99.90;;;;;;5018118;28;20208;-52
2023/08/28 04:38:38;;;;;;;6.00;3.60;;;13.50;99.90;;;;;;5025190;28;20195;-51
2023/08/28 04:41:05;;;;;;;3.93;3.63;;;13.50;99.90;;;;;;5014512;28;20277;-44
2023/08/28 04:43:34;;;;;;;4.57;3.73;;;13.50;99.90;;;;;;5007899;28;20671;-47
2023/08/28 04:46:01;;;;;;;4.30;4.00;;;13.50;99.90;;;;;;5025592;28;20187;-53
2023/08/28 04:48:29;;;;;;;4.80;4.10;;;13.50;99.90;;;;;;5018185;28;20212;-45
2023/08/28 04:50:58;;;;;;;4.23;3.83;;;13.50;99.90;;;;;;5023564;28;20188;-55
2023/08/28 04:53:24;;;;;;;4.40;4.00;;;13.50;99.90;;;;;;5029225;28;20200;-52
2023/08/28 04:55:51;;;;;;;4.23;3.93;;;13.50;99.90;;;;;;5014659;28;20212;-45
2023/08/28 04:58:18;;;;;;;3.97;3.77;;;13.50;99.90;;;;;;5009017;28;20220;-43
2023/08/28 05:00:45;;;;;;;4.57;4.17;;;13.50;99.90;;;;;;5024734;28;20301;-49
2023/08/28 05:03:12;;;;;;;5.37;4.83;;;13.40;99.90;;;;;;5018086;28;20234;-47
2023/08/28 05:05:40;;;;;;;5.23;4.80;;;13.40;99.90;;;;;;5017709;28;20269;-60
2023/08/28 05:08:07;;;;;;;5.67;4.70;;;13.40;99.90;;;;;;5026056;28;20188;-56
2023/08/28 05:10:34;;;;;;;6.63;5.20;;;13.30;99.90;;;;;;5028498;28;20215;-58
2023/08/28 05:13:01;;;;;;;7.70;6.37;;;13.30;99.90;;;;;;4999979;28;20266;-57
2023/08/28 05:15:27;;;;;;;7.83;6.93;;;13.30;99.90;;;;;;5028253;28;20215;-54
2023/08/28 05:17:54;;;;;;;10.60;7.53;;;13.30;99.90;;;;;;5019548;28;20200;-53
2023/08/28 05:20:21;;;;;;;7.60;6.83;;;13.30;99.90;;;;;;5014061;28;20220;-57
2023/08/28 05:22:50;;;;;;;10.97;7.10;;;13.30;99.90;;;;;;5017478;28;20275;-58
2023/08/28 05:25:17;;;;;;;7.53;6.67;;;13.40;99.90;;;;;;5026260;28;20226;-58
2023/08/28 05:27:45;;;;;;;7.00;6.30;;;13.40;99.90;;;;;;5021379;28;20274;-59
2023/08/28 05:30:12;;;;;;;7.13;6.53;;;13.40;99.90;;;;;;5003683;28;20204;-59
2023/08/28 05:32:39;;;;;;;6.50;5.90;;;13.40;99.90;;;;;;5024820;28;20212;-59
2023/08/28 05:35:07;;;;;;;6.90;5.90;;;13.40;99.90;;;;;;5020786;28;20715;-58
2023/08/28 05:37:33;;;;;;;5.57;5.07;;;13.40;99.90;;;;;;5014163;28;22984;-61
2023/08/28 05:40:02;;;;;;;4.90;4.50;;;13.50;99.90;;;;;;5025519;28;20274;-60
2023/08/28 05:42:29;;;;;;;7.03;4.93;;;13.40;99.90;;;;;;5015445;28;20383;-60
2023/08/28 05:44:56;;;;;;;6.47;4.80;;;13.50;99.90;;;;;;5007184;28;20274;-59
2023/08/28 05:47:23;;;;;;;6.10;3.80;;;13.50;99.90;;;;;;5017794;28;20196;-58
2023/08/28 05:49:50;;;;;;;5.17;4.67;;;13.50;99.90;;;;;;5023953;28;20195;-57
2023/08/28 05:52:17;;;;;;;4.87;4.33;;;13.50;99.90;;;;;;5012576;28;20196;-56
2023/08/28 05:54:43;;;;;;;6.93;4.63;;;13.50;99.90;;;;;;5018455;28;20278;-57
2023/08/28 05:57:12;;;;;;;5.97;4.10;;;13.50;99.90;;;;;;5021493;28;20663;-59
2023/08/28 05:59:39;;;;;;;4.40;4.00;;;13.60;99.90;;;;;;4998282;28;20212;-57
2023/08/28 06:02:06;;;;;;;7.43;3.70;;;13.60;99.90;;;;;;5035805;28;20562;-59
2023/08/28 06:04:33;;;;;;;3.30;3.00;;;13.60;99.90;;;;;;5032071;28;20234;-57
2023/08/28 06:07:00;;;;;;;3.93;3.53;;;13.70;99.90;;;;;;5028594;28;20231;-58
2023/08/28 06:09:27;;;;;;;4.63;3.90;;;13.70;99.90;;;;;;5018220;28;20219;-59
2023/08/28 06:11:54;;;;;;;4.80;3.20;;;13.80;99.90;;;;;;5031934;28;20199;-58
2023/08/28 06:14:22;;;;;;;3.33;3.13;;;13.80;99.90;;;;;;5020564;28;20306;-58
2023/08/28 06:16:50;;;;;;;4.33;3.30;;;13.90;99.90;;;;;;4987417;28;20200;-58
2023/08/28 06:19:17;;;;;;;3.90;3.10;;;13.90;99.90;;;;;;5021631;28;20262;-59
2023/08/28 06:21:45;;;;;;;4.20;3.33;;;14.00;99.90;;;;;;5016554;28;20282;-59
2023/08/28 06:24:12;;;;;;;4.17;3.07;;;14.10;99.90;;;;;;5024623;28;20216;-59
2023/08/28 06:26:40;;;;;;;5.30;3.07;;;14.10;99.90;;;;;;5012371;28;20215;-59
2023/08/28 06:29:07;;;;;;;5.53;3.23;;;14.10;99.90;;;;;;5021107;28;20701;-59
2023/08/28 06:31:35;;;;;;;3.43;2.90;;;14.20;99.90;;;;;;4998576;28;20219;-52
2023/08/28 06:34:02;;;;;;;7.50;2.87;;;14.20;99.90;;;;;;5027606;28;20629;-45
2023/08/28 06:36:29;;;;;;;3.33;2.37;;;14.20;99.90;;;;;;5031111;28;20270;-51
2023/08/28 06:38:56;;;;;;;4.20;2.60;;;14.30;99.90;;;;;;5018351;28;20211;-44
2023/08/28 06:41:23;;;;;;;4.27;2.57;;;14.30;99.90;;;;;;5030834;28;20721;-53
2023/08/28 06:43:50;;;;;;;2.83;2.13;;;14.40;99.90;;;;;;5020875;28;20274;-45
2023/08/28 06:46:17;;;;;;;2.93;1.93;;;14.50;99.90;;;;;;5029694;28;20208;-46
2023/08/28 06:48:45;;;;;;;5.47;2.07;;;14.60;99.90;;;;;;5007534;28;20199;-46
2023/08/28 06:51:12;;;;;;;3.70;2.17;;;14.70;99.90;;;;;;5026461;28;20601;-48
2023/08/28 06:53:39;;;;;;;5.87;1.60;;;14.70;99.90;;;;;;5022478;28;20212;-53
2023/08/28 06:56:06;;;;;;;3.30;1.63;;;14.80;99.90;;;;;;5017931;28;20199;-49
2023/08/28 06:58:33;;;;;;;2.43;1.40;;;14.90;99.90;;;;;;5036115;28;20199;-53
2023/08/28 07:01:00;;;;;;;4.13;1.40;;;14.90;99.90;;;;;;5026955;28;20249;-48
2023/08/28 07:03:27;;;;;;;2.00;1.60;;;15.00;99.90;;;;;;5002340;28;20242;-51
2023/08/28 07:05:55;;;;;;;4.27;1.40;;;15.10;99.90;;;;;;5028668;28;20184;-49
2023/08/28 07:08:22;;;;;;;1.57;1.47;;;15.10;99.90;;;;;;5015721;28;20200;-53
2023/08/28 07:10:48;;;;;;;3.17;1.30;;;15.20;99.90;;;;;;5013817;28;20303;-59
2023/08/28 07:13:15;;;;;;;3.60;1.83;;;15.30;99.90;;;;;;5035955;28;20576;-62
2023/08/28 07:15:57;;;;;;;2.87;1.70;;;15.40;99.90;;;;;;5029077;28;20207;-59
2023/08/28 07:18:24;;;;;;;4.07;1.37;;;15.50;99.90;;;;;;4993113;28;20216;-61
2023/08/28 07:20:51;;;;;;;4.73;1.27;;;15.50;99.90;;;;;;5028830;28;20203;-58
2023/08/28 07:23:19;;;;;;;2.17;1.20;;;15.60;99.90;;;;;;5013744;28;20658;-60
2023/08/28 07:25:46;;;;;;;2.17;1.20;;;15.60;99.90;;;;;;5006974;28;20208;-60
2023/08/28 07:28:13;;;;;;;5.23;0.97;;;15.70;99.90;;;;;;5025763;28;20191;-60
2023/08/28 07:30:41;;;;;;;1.30;1.13;;;15.80;99.90;;;;;;5024980;28;20892;-60
2023/08/28 07:33:08;;;;;;;3.90;1.23;;;15.90;99.90;;;;;;5009373;28;20228;-59
2023/08/28 07:35:36;;;;;;;3.50;1.37;;;15.90;99.90;;;;;;5027362;28;20223;-59
2023/08/28 07:38:07;;;;;;;2.03;1.10;;;16.00;99.90;;;;;;5018117;28;20231;-59
2023/08/28 07:40:35;;;;;;;3.47;1.27;;;16.00;99.90;;;;;;5013461;28;20274;-58
2023/08/28 07:43:03;;;;;;;2.67;0.80;;;16.10;99.90;;;;;;5019498;28;20208;-60
2023/08/28 07:45:30;;;;;;;2.23;1.00;;;16.10;99.90;;;;;;5026975;28;20690;-58
2023/08/28 07:47:58;;;;;;;1.47;1.17;;;16.20;99.90;;;;;;5006556;28;20227;-59
2023/08/28 07:50:26;;;;;;;1.43;1.00;;;16.30;99.90;;;;;;5011674;28;20196;-59
2023/08/28 07:52:53;;;;;;;2.70;1.10;;;16.30;99.90;;;;;;5022737;28;20196;-60
2023/08/28 07:55:20;;;;;;;2.80;1.10;;;16.40;99.90;;;;;;5001466;28;20235;-59
2023/08/28 07:57:48;;;;;;;2.00;1.27;;;16.50;99.90;;;;;;5015540;28;20211;-60
2023/08/28 08:00:20;;;;;;;4.67;1.00;;;16.50;99.90;;;;;;5032375;28;20200;-58
2023/08/28 08:02:47;;;;;;;4.33;1.17;;;16.60;99.90;;;;;;5026032;28;20202;-58
2023/08/28 08:05:14;;;;;;;3.90;1.10;;;16.60;99.90;;;;;;5008070;28;20274;-58
2023/08/28 08:07:41;;;;;;;3.70;1.13;;;16.70;99.90;;;;;;5021687;28;20282;-59
2023/08/28 08:10:09;;;;;;;2.03;1.00;;;16.80;99.90;;;;;;5017016;28;20211;-60
2023/08/28 08:12:36;;;;;;;3.77;0.90;;;16.80;99.90;;;;;;5006736;28;20262;-45
2023/08/28 08:15:06;;;;;;;4.80;1.00;;;16.90;99.90;;;;;;5026965;28;20705;-55
2023/08/28 08:17:33;;;;;;;1.70;1.43;;;17.10;99.90;;;;;;5028085;28;20200;-57
2023/08/28 08:20:00;;;;;;;1.50;1.03;;;17.20;99.90;;;;;;5005373;28;20283;-57
2023/08/28 08:22:26;;;;;;;7.20;1.10;;;17.20;99.90;;;;;;5017732;28;20216;-56
2023/08/28 08:24:53;;;;;;;2.67;0.90;;;17.20;99.90;;;;;;5019208;28;20301;-57
2023/08/28 08:27:20;;;;;;;1.43;0.70;;;17.30;99.90;;;;;;5010767;28;20231;-57
2023/08/28 08:29:48;;;;;;;2.40;0.80;;;17.50;99.90;;;;;;5018793;28;21030;-55
2023/08/28 08:32:17;;;;;;;2.10;1.00;;;17.50;99.90;;;;;;5019636;28;20204;-54
2023/08/28 08:34:45;;;;;;;2.37;1.00;;;17.50;99.90;;;;;;5007219;28;20227;-57
2023/08/28 08:37:11;;;;;;;2.37;1.03;;;17.40;99.90;;;;;;5024201;28;20274;-48
2023/08/28 08:39:38;;;;;;;6.97;1.23;;;17.50;99.90;;;;;;5022554;28;20337;-51
2023/08/28 08:42:06;;;;;;;2.33;1.00;;;17.60;99.90;;;;;;5016886;28;20212;-51
2023/08/28 08:44:33;;;;;;;1.60;1.30;;;17.60;99.90;;;;;;5009027;28;20208;-49
2023/08/28 08:47:03;;;;;;;1.27;0.80;;;17.60;99.90;;;;;;5032552;28;20192;-47
2023/08/28 08:49:32;;;;;;;1.63;0.80;;;17.60;99.90;;;;;;5027455;28;20195;-50
2023/08/28 08:52:03;;;;;;;3.37;0.90;;;17.50;99.90;;;;;;5009504;28;20200;-47
2023/08/28 08:54:37;;;;;;;1.30;1.20;;;17.40;99.90;;;;;;5029438;28;20265;-49
2023/08/28 08:57:09;;;;;;;4.73;1.20;;;17.40;99.90;;;;;;5019997;28;20214;-51
2023/08/28 08:59:36;;;;;;;3.77;0.70;;;17.40;99.90;;;;;;5017826;28;20192;-52
2023/08/28 09:02:04;;;;;;;2.93;1.00;;;17.40;99.90;;;;;;5030995;28;20216;-50
2023/08/28 09:04:33;;;;;;;1.77;0.60;;;17.50;99.90;;;;;;5025278;28;20415;-52
2023/08/28 09:07:00;;;;;;;3.03;0.70;;;17.60;99.90;;;;;;5005594;28;20204;-49
2023/08/28 09:09:28;;;;;;;1.83;0.70;;;17.80;99.90;;;;;;5021762;28;20203;-51
2023/08/28 09:11:54;;;;;;;3.43;0.80;;;17.90;99.90;;;;;;5036746;28;20196;-55
2023/08/28 09:14:21;;;;;;;0.87;0.67;;;18.10;99.90;;;;;;5013249;28;20270;-47
2023/08/28 09:16:48;;;;;;;1.53;0.80;;;18.20;99.90;;;;;;5026293;28;20204;-51
2023/08/28 09:19:15;;;;;;;1.10;0.83;;;18.30;99.90;;;;;;5027380;28;20207;-49
2023/08/28 09:21:47;;;;;;;1.53;0.80;;;18.30;99.90;;;;;;5026328;28;20212;-48
2023/08/28 09:24:14;;;;;;;3.80;0.90;;;18.20;99.90;;;;;;5007324;28;20234;-46
2023/08/28 09:26:52;;;;;;;3.10;1.03;;;18.20;99.90;;;;;;5026029;28;20258;-50
2023/08/28 09:29:23;;;;;;;1.67;1.20;;;18.20;99.90;;;;;;5014471;28;20202;-51
2023/08/28 09:31:50;;;;;;;2.03;0.77;;;18.20;99.90;;;;;;5028021;28;20196;-49
2023/08/28 09:34:19;;;;;;;2.03;0.90;;;18.10;99.90;;;;;;5027017;28;20278;-51
2023/08/28 09:36:48;;;;;;;1.97;0.73;;;18.00;99.90;;;;;;5029227;28;20196;-56
2023/08/28 09:39:14;;;;;;;1.53;0.70;;;18.00;99.90;;;;;;4995542;28;20678;-57
2023/08/28 09:41:43;;;;;;;1.87;0.87;;;18.00;99.90;;;;;;5022170;28;20220;-57
2023/08/28 09:44:10;;;;;;;1.73;0.80;;;18.00;99.90;;;;;;5010628;28;20223;-60
2023/08/28 09:46:38;;;;;;;4.47;0.70;;;18.00;99.90;;;;;;5013503;28;20220;-60
2023/08/28 09:49:06;;;;;;;2.87;0.80;;;18.00;99.90;;;;;;5026216;28;20191;-62
2023/08/28 09:51:41;;;;;;;1.70;0.70;;;18.00;99.90;;;;;;5024601;28;20265;-55
2023/08/28 09:54:10;;;;;;;2.07;0.77;;;18.00;99.90;;;;;;5008080;28;20235;-58
2023/08/28 09:56:38;;;;;;;0.90;0.60;;;18.10;99.90;;;;;;5015846;28;20206;-58
2023/08/28 09:59:06;;;;;;;3.27;1.00;;;18.10;99.90;;;;;;5016783;28;20740;-58
2023/08/28 10:01:34;;;;;;;1.90;0.80;;;18.20;99.90;;;;;;5007778;28;20218;-59
2023/08/28 10:04:05;;;;;;;0.70;0.60;;;18.30;99.90;;;;;;5007091;28;20252;-58
2023/08/28 10:06:35;;;;;;;2.07;0.70;;;18.30;99.90;;;;;;5017644;28;20183;-59
2023/08/28 10:09:05;;;;;;;1.23;0.70;;;18.50;99.90;;;;;;5017278;28;20272;-57
2023/08/28 10:11:38;;;;;;;2.40;0.70;;;18.50;99.90;;;;;;5014430;28;20292;-59
2023/08/28 10:14:06;;;;;;;1.70;0.70;;;18.50;99.90;;;;;;5011864;28;20225;-55
2023/08/28 10:16:36;;;;;;;3.50;0.60;;;18.40;99.90;;;;;;5011825;28;20232;-60
2023/08/28 10:19:11;;;;;;;2.53;0.53;;;18.40;99.90;;;;;;5021609;28;20190;-60
2023/08/28 10:21:40;;;;;;;2.70;0.70;;;18.30;99.90;;;;;;5025806;28;20221;-60
2023/08/28 10:24:08;;;;;;;3.40;0.87;;;18.30;99.90;;;;;;5028865;28;20292;-58
2023/08/28 10:26:37;;;;;;;0.97;0.60;;;18.30;99.90;;;;;;5012746;28;20192;-60
2023/08/28 10:29:05;;;;;;;0.90;0.53;;;18.20;99.90;;;;;;5031139;28;20318;-59
2023/08/28 10:31:33;;;;;;;2.03;0.90;;;18.20;99.90;;;;;;5006512;28;20943;-58
2023/08/28 10:34:01;;;;;;;2.77;0.80;;;18.30;99.90;;;;;;5026117;28;20223;-60
2023/08/28 10:36:30;;;;;;;1.43;0.60;;;18.40;99.90;;;;;;5025450;28;21020;-60
2023/08/28 10:38:58;;;;;;;4.13;0.70;;;18.40;99.90;;;;;;5024337;28;20207;-60
2023/08/28 10:41:26;;;;;;;0.80;0.70;;;18.50;99.90;;;;;;5003966;28;20956;-59
2023/08/28 10:43:55;;;;;;;3.47;0.70;;;18.50;99.90;;;;;;5018169;28;20208;-59
2023/08/28 10:46:27;;;;;;;2.73;0.70;;;18.50;99.90;;;;;;5012159;28;20203;-58
2023/08/28 10:48:57;;;;;;;2.93;0.93;;;18.40;99.90;;;;;;5016072;28;20613;-59
2023/08/28 10:51:30;;;;;;;1.07;0.83;;;18.30;99.90;;;;;;5017935;28;20188;-59
2023/08/28 10:54:01;;;;;;;2.17;0.70;;;18.30;99.90;;;;;;5024235;28;20230;-59
2023/08/28 10:56:32;;;;;;;1.10;0.60;;;18.30;99.90;;;;;;5000498;28;20215;-58
2023/08/28 10:59:24;;;;;;;1.07;0.77;;;18.30;99.90;;;;;;5024373;28;20188;-57
2023/08/28 11:01:55;;;;;;;1.90;0.80;;;18.30;99.90;;;;;;5011871;28;20220;-57
2023/08/28 11:04:23;;;;;;;1.20;1.07;;;18.20;99.90;;;;;;5011972;28;20219;-60
2023/08/28 11:06:51;;;;;;;4.37;1.17;;;18.20;99.90;;;;;;5029829;28;20200;-53
2023/08/28 11:09:39;;;;;;;1.87;0.77;;;18.10;99.90;;;;;;5027225;28;20207;-58
2023/08/28 11:12:25;;;;;;;1.37;0.70;;;17.80;99.90;;;;;;4989070;28;20639;-58
2023/08/28 11:15:03;;;;;;;0.80;0.53;;;17.60;99.90;;;;;;5020214;28;20220;-59
2023/08/28 11:17:32;;;;;;;1.93;1.10;;;17.60;99.90;;;;;;5018273;28;20210;-57
2023/08/28 11:20:05;;;;;;;0.83;0.60;;;17.40;99.90;;;;;;5025276;28;20215;-55
2023/08/28 11:22:33;;;;;;;2.00;0.90;;;17.40;99.90;;;;;;5032437;28;20302;-58
2023/08/28 11:25:01;;;;;;;2.47;0.63;;;17.50;99.90;;;;;;5028043;28;20207;-56
2023/08/28 11:27:32;;;;;;;1.47;0.87;;;17.50;99.90;;;;;;5005980;28;20212;-56
2023/08/28 11:30:04;;;;;;;0.90;0.60;;;17.60;99.90;;;;;;5014460;28;20212;-55
2023/08/28 11:32:31;;;;;;;1.27;0.60;;;17.70;99.90;;;;;;5020097;28;20227;-51
2023/08/28 11:35:00;;;;;;;3.13;0.80;;;17.70;99.90;;;;;;5016930;28;20215;-55
2023/08/28 11:37:31;;;;;;;2.40;0.63;;;17.90;99.90;;;;;;5041957;28;20196;-52
2023/08/28 11:39:58;;;;;;;2.50;0.53;;;17.90;99.90;;;;;;5025974;28;20199;-56
2023/08/28 11:42:25;;;;;;;1.83;0.90;;;18.00;99.90;;;;;;5006766;28;20732;-57
2023/08/28 11:44:51;;;;;;;1.70;0.70;;;18.00;99.90;;;;;;5015614;28;20215;-59
2023/08/28 11:47:25;;;;;;;2.20;0.83;;;18.00;99.90;;;;;;5019008;28;20204;-57
2023/08/28 11:49:52;;;;;;;0.50;0.50;;;18.20;99.90;;;;;;5017929;28;20287;-59
2023/08/28 11:52:19;;;;;;;1.30;0.70;;;18.30;99.90;;;;;;5017790;28;20669;-54
2023/08/28 11:54:46;;;;;;;4.27;0.73;;;18.50;99.90;;;;;;5023932;28;20274;-58
2023/08/28 11:57:16;;;;;;;1.73;0.50;;;18.60;99.90;;;;;;5005254;28;20709;-58
2023/08/28 11:59:44;;;;;;;1.63;0.70;;;18.80;99.90;;;;;;5013359;28;20245;-59
2023/08/28 12:02:13;;;;;;;1.47;0.63;;;19.00;99.90;;;;;;5019277;28;20218;-58
2023/08/28 12:04:42;;;;;;;1.90;1.00;;;19.00;99.90;;;;;;5000275;28;20760;-59
2023/08/28 12:07:19;;;;;;;0.70;0.40;;;19.10;99.90;;;;;;5015344;28;20281;-57
2023/08/28 12:09:49;;;;;;;1.47;0.60;;;19.20;99.90;;;;;;5019325;28;20984;-57
2023/08/28 12:12:16;;;;;;;4.10;1.23;;;19.40;99.90;;;;;;5009219;28;20250;-55
2023/08/28 12:14:44;;;;;;;3.43;0.70;;;19.40;99.90;;;;;;4995299;28;20223;-57
2023/08/28 12:17:15;;;;;;;0.80;0.60;;;19.60;99.90;;;;;;5023851;28;20247;-55
2023/08/28 12:19:44;;;;;;;0.73;0.60;;;19.60;99.90;;;;;;5018677;28;20278;-59
2023/08/28 12:22:12;;;;;;;2.13;0.40;;;19.50;99.90;;;;;;5017319;28;20212;-53
2023/08/28 12:24:43;;;;;;;0.57;0.40;;;19.40;99.90;;;;;;5028678;28;20215;-56
2023/08/28 12:27:11;;;;;;;1.80;0.60;;;19.40;99.90;;;;;;5026397;28;20203;-56
2023/08/28 12:29:38;;;;;;;2.17;1.03;;;19.60;99.90;;;;;;5006939;28;20228;-57
2023/08/28 12:32:07;;;;;;;1.73;0.60;;;19.70;99.90;;;;;;5032278;28;20279;-56
2023/08/28 12:34:37;;;;;;;0.60;0.40;;;19.80;99.90;;;;;;5011927;28;20231;-58
2023/08/28 12:37:06;;;;;;;0.50;0.33;;;20.00;99.90;;;;;;5020356;28;20236;-53
2023/08/28 12:39:34;;;;;;;0.97;0.50;;;20.20;99.90;;;;;;5026293;28;20204;-57
2023/08/28 12:42:01;;;;;;;0.40;0.40;;;20.20;99.90;;;;;;5022497;28;20706;-55
2023/08/28 12:44:29;;;;;;;1.33;0.43;;;20.20;99.90;;;;;;5006384;28;20243;-59
2023/08/28 12:46:57;;;;;;;0.70;0.30;;;20.10;99.90;;;;;;5026418;28;20215;-56
2023/08/28 12:49:24;;;;;;;0.47;0.40;;;20.10;99.90;;;;;;5020232;28;20211;-58
2023/08/28 12:51:51;;;;;;;1.03;0.40;;;20.20;99.90;;;;;;5008161;28;20195;-58
2023/08/28 12:54:20;;;;;;;0.97;0.53;;;20.30;99.90;;;;;;5019806;28;20220;-59